Terminal Aerodrome Forecast
Issued by NWS

Home | Current Version | Previous Version | Text Only | Print | Product List | Glossary On
Versions: 1 2 3 4 5 6 7 8 9 10 11 12 13 14 15 16 17 18 19 20 21 22 23 24
332
FTUS46 KSEW 231512 AAB
TAFSEA
TAF AMD
KSEA 231512Z 2315/2418 15009KT P6SM SCT030 BKN070 BKN150
     FM231900 17009KT P6SM FEW030 BKN080 OVC150
     FM240400 13009KT P6SM -RA OVC040=

USA.gov is the U.S. government's official web portal to all federal, state and local government web resources and services.